Terminal Aerodrome Forecast
Issued by NWS San Angelo, TX

Home | Current Version | Previous Version | Text Only | Print | Product List | Glossary On
Versions: 1 2 3 4 5 6 7 8 9 10 11 12 13 14 15 16 17 18 19 20 21 22 23
000
FTUS44 KSJT 062100 AAA
TAFABI
TAF AMD
KABI 062131Z 0622/0718 16017G26KT P6SM VCTS SCT060CB
     FM062300 17015G23KT P6SM SCT060
     FM070100 17015G23KT P6SM VCTS BKN050CB
      TEMPO 0702/0704 4SM TSRA BKN035CB
     FM070400 16013G20KT P6SM BKN040
     FM070700 16012G18KT P6SM OVC015=

USA.gov is the U.S. government's official web portal to all federal, state and local government web resources and services.